createdAt,value
2023-05-10T00:01:22.199Z,15.57
2023-05-10T00:03:50.282Z,15.13
2023-05-10T00:06:18.332Z,15.89
2023-05-10T00:08:47.698Z,15.74
2023-05-10T00:11:15.670Z,15.38
2023-05-10T00:13:43.660Z,15.56
2023-05-10T00:16:13.101Z,15.78
2023-05-10T00:18:41.195Z,15.76
2023-05-10T00:21:09.153Z,15.11
2023-05-10T00:23:37.020Z,15.54
2023-05-10T00:26:06.384Z,15.89
2023-05-10T00:28:34.269Z,15.70
2023-05-10T00:31:02.098Z,15.49
2023-05-10T00:33:31.608Z,15.22
2023-05-10T00:35:59.471Z,14.99
2023-05-10T00:38:27.380Z,15.69
2023-05-10T00:40:55.320Z,16.03
2023-05-10T00:43:30.977Z,15.81
2023-05-10T00:45:59.509Z,15.67
2023-05-10T00:48:27.974Z,15.81
2023-05-10T00:50:55.907Z,15.72
2023-05-10T00:53:24.009Z,15.72
2023-05-10T00:55:52.131Z,15.43
2023-05-10T00:58:20.678Z,15.82
2023-05-10T01:00:50.680Z,15.72
2023-05-10T01:03:19.409Z,15.90
2023-05-10T01:05:47.558Z,15.95
2023-05-10T01:08:15.765Z,15.42
2023-05-10T01:10:44.737Z,15.37
2023-05-10T01:13:13.602Z,15.65
2023-05-10T01:15:42.810Z,15.72
2023-05-10T01:18:12.374Z,15.56
2023-05-10T01:20:48.044Z,15.88
2023-05-10T01:23:39.708Z,15.33
2023-05-10T01:26:26.757Z,15.43
2023-05-10T01:29:16.230Z,15.77
2023-05-10T01:32:22.392Z,15.66
2023-05-10T01:35:01.816Z,15.85
2023-05-10T01:37:43.999Z,16.10
2023-05-10T01:40:20.444Z,16.16
2023-05-10T01:42:52.460Z,15.74
2023-05-10T01:45:27.648Z,15.65
2023-05-10T01:48:04.325Z,15.58
2023-05-10T01:50:34.944Z,16.07
2023-05-10T01:53:04.363Z,15.83
2023-05-10T01:55:35.675Z,16.13
2023-05-10T01:58:07.749Z,15.72
2023-05-10T02:00:37.229Z,16.19
2023-05-10T02:03:12.447Z,15.68
2023-05-10T02:05:42.358Z,14.80
2023-05-10T02:08:11.462Z,15.39
2023-05-10T02:10:41.398Z,15.62
2023-05-10T02:13:12.094Z,15.85
2023-05-10T02:15:41.545Z,16.02
2023-05-10T02:18:13.283Z,15.96
2023-05-10T02:20:41.615Z,15.58
2023-05-10T02:23:11.891Z,15.81
2023-05-10T02:25:40.750Z,15.71
2023-05-10T02:28:10.121Z,15.57
2023-05-10T02:30:38.832Z,15.44
2023-05-10T02:33:08.387Z,15.50
2023-05-10T02:35:40.034Z,15.32
2023-05-10T02:38:09.645Z,15.76
2023-05-10T02:40:38.889Z,15.66
2023-05-10T02:43:08.359Z,15.83
2023-05-10T02:45:39.861Z,15.70
2023-05-10T02:48:08.631Z,15.96
2023-05-10T02:50:39.346Z,15.80
2023-05-10T02:53:12.827Z,15.73
2023-05-10T02:55:43.070Z,15.94
2023-05-10T02:58:11.173Z,15.59
2023-05-10T03:00:39.100Z,15.87
2023-05-10T03:03:07.816Z,15.40
2023-05-10T03:05:37.179Z,15.38
2023-05-10T03:08:07.211Z,15.39
2023-05-10T03:10:43.605Z,15.42
2023-05-10T03:13:19.175Z,15.37
2023-05-10T03:15:57.657Z,15.45
2023-05-10T03:18:31.459Z,15.58
2023-05-10T03:21:06.910Z,15.46
2023-05-10T03:23:38.523Z,15.76
2023-05-10T03:26:08.007Z,15.79
2023-05-10T03:28:36.763Z,15.66
2023-05-10T03:31:07.899Z,15.82
2023-05-10T03:33:36.283Z,15.59
2023-05-10T03:36:06.438Z,15.63
2023-05-10T03:38:34.448Z,15.84
2023-05-10T03:41:02.982Z,15.57
2023-05-10T03:43:30.907Z,15.32
2023-05-10T03:45:59.227Z,15.43
2023-05-10T03:48:27.178Z,15.62
2023-05-10T03:50:55.097Z,15.54
2023-05-10T03:53:24.815Z,15.87
2023-05-10T03:55:53.183Z,15.43
2023-05-10T03:58:21.328Z,15.54
2023-05-10T04:00:49.332Z,15.60
2023-05-10T04:03:17.434Z,15.24
2023-05-10T04:05:45.594Z,15.59
2023-05-10T04:08:13.700Z,15.45
2023-05-10T04:10:43.041Z,15.37
2023-05-10T04:13:11.006Z,15.11
2023-05-10T04:15:38.984Z,15.15
2023-05-10T04:18:08.872Z,15.21
2023-05-10T04:20:36.968Z,15.63
2023-05-10T04:23:04.939Z,15.55
2023-05-10T04:25:35.873Z,15.53
2023-05-10T04:28:05.655Z,15.34
2023-05-10T04:30:33.671Z,15.36
2023-05-10T04:33:02.910Z,15.56
2023-05-10T04:35:30.936Z,15.52
2023-05-10T04:37:58.820Z,15.00
2023-05-10T04:40:26.798Z,15.24
2023-05-10T04:42:55.200Z,15.11
2023-05-10T04:45:24.513Z,15.16
2023-05-10T04:47:52.477Z,15.72
2023-05-10T04:50:20.443Z,15.41
2023-05-10T04:52:48.341Z,15.11
2023-05-10T04:55:16.535Z,15.46
2023-05-10T04:57:44.351Z,15.23
2023-05-10T05:00:13.264Z,15.34
2023-05-10T05:02:44.735Z,15.04
2023-05-10T05:05:12.831Z,14.82
2023-05-10T05:07:40.668Z,14.73
2023-05-10T05:10:11.070Z,15.05
2023-05-10T05:12:39.192Z,15.29
2023-05-10T05:15:09.948Z,15.14
2023-05-10T05:17:37.942Z,15.16
2023-05-10T05:20:09.168Z,15.13
2023-05-10T05:22:37.983Z,15.55
2023-05-10T05:25:07.124Z,15.74
2023-05-10T05:27:35.033Z,15.68
2023-05-10T05:30:03.361Z,14.81
2023-05-10T05:32:31.875Z,14.84
2023-05-10T05:35:00.324Z,14.81
2023-05-10T05:37:29.779Z,15.04
2023-05-10T05:40:07.552Z,14.96
2023-05-10T05:42:35.652Z,15.71
2023-05-10T05:45:06.383Z,15.85
2023-05-10T05:47:34.267Z,15.73
2023-05-10T05:50:02.161Z,15.43
2023-05-10T05:52:32.595Z,15.16
2023-05-10T05:55:01.261Z,15.40
2023-05-10T05:57:29.172Z,15.35
2023-05-10T05:59:57.101Z,15.83
2023-05-10T06:02:25.019Z,15.60
2023-05-10T06:04:53.043Z,15.34
2023-05-10T06:07:21.294Z,15.36
2023-05-10T06:09:50.637Z,15.65
2023-05-10T06:12:18.582Z,15.42
2023-05-10T06:14:46.494Z,15.61
2023-05-10T06:17:14.380Z,15.74
2023-05-10T06:19:42.337Z,15.74
2023-05-10T06:22:10.272Z,16.22
2023-05-10T06:24:38.116Z,16.19
2023-05-10T06:27:08.258Z,16.03
2023-05-10T06:29:36.324Z,16.78
2023-05-10T06:32:04.275Z,16.49
2023-05-10T06:34:32.545Z,16.61
2023-05-10T06:37:00.598Z,16.08
2023-05-10T06:39:28.480Z,16.29
2023-05-10T06:41:56.481Z,16.60
2023-05-10T06:44:25.768Z,16.81
2023-05-10T06:46:54.724Z,16.54
2023-05-10T06:49:22.706Z,16.62
2023-05-10T06:51:50.558Z,15.87
2023-05-10T06:54:18.690Z,16.32
2023-05-10T06:56:47.044Z,16.33
2023-05-10T06:59:16.310Z,16.16
2023-05-10T07:01:45.595Z,15.92
2023-05-10T07:04:14.019Z,16.21
2023-05-10T07:06:41.994Z,16.07
2023-05-10T07:09:09.984Z,16.23
2023-05-10T07:11:38.509Z,16.77
2023-05-10T07:14:06.404Z,16.83
2023-05-10T07:16:34.354Z,17.13
2023-05-10T07:19:03.779Z,16.33
2023-05-10T07:21:32.277Z,16.81
2023-05-10T07:24:01.200Z,17.26
2023-05-10T07:26:29.453Z,16.59
2023-05-10T07:28:58.425Z,16.90
2023-05-10T07:31:26.280Z,16.71
2023-05-10T07:33:54.274Z,17.37
2023-05-10T07:36:23.522Z,17.06
2023-05-10T07:38:51.560Z,16.97
2023-05-10T07:41:19.483Z,18.04
2023-05-10T07:43:47.340Z,18.54
2023-05-10T07:46:15.329Z,18.07
2023-05-10T07:48:43.340Z,18.13
2023-05-10T07:51:11.696Z,18.24
2023-05-10T07:53:41.049Z,19.29
2023-05-10T07:56:23.779Z,18.98
2023-05-10T07:58:51.869Z,17.88
2023-05-10T08:01:20.134Z,18.16
2023-05-10T08:03:48.212Z,18.51
2023-05-10T08:06:16.977Z,18.07
2023-05-10T08:08:50.298Z,17.73
2023-05-10T08:11:18.623Z,17.45
2023-05-10T08:13:46.721Z,17.86
2023-05-10T08:16:15.093Z,17.84
2023-05-10T08:18:43.088Z,17.16
2023-05-10T08:21:12.269Z,17.44
2023-05-10T08:23:40.290Z,17.14
2023-05-10T08:26:09.547Z,18.81
2023-05-10T08:28:37.490Z,17.85
2023-05-10T08:31:07.060Z,17.89
2023-05-10T08:33:35.210Z,18.46
2023-05-10T08:36:03.440Z,17.98
2023-05-10T08:38:31.773Z,17.71
2023-05-10T08:41:01.730Z,19.48
2023-05-10T08:43:32.263Z,20.48
2023-05-10T08:46:02.641Z,19.96
2023-05-10T08:48:31.823Z,18.73
2023-05-10T08:51:03.043Z,18.32
2023-05-10T08:53:33.113Z,18.57
2023-05-10T08:56:01.273Z,17.71
2023-05-10T08:58:30.646Z,18.27
2023-05-10T09:00:59.351Z,17.48
2023-05-10T09:03:27.524Z,17.29
2023-05-10T09:05:56.810Z,17.54
2023-05-10T09:08:26.829Z,18.13
2023-05-10T09:10:55.350Z,19.27
2023-05-10T09:13:25.250Z,19.13
2023-05-10T09:15:55.284Z,19.30
2023-05-10T09:18:23.264Z,19.52
2023-05-10T09:20:51.520Z,18.50
2023-05-10T09:23:19.393Z,18.85
2023-05-10T09:25:47.482Z,19.17
2023-05-10T09:28:15.427Z,19.55
2023-05-10T09:30:44.021Z,19.11
2023-05-10T09:33:13.291Z,18.53
2023-05-10T09:35:41.525Z,17.14
2023-05-10T09:38:09.688Z,16.38
2023-05-10T09:40:37.657Z,16.86
2023-05-10T09:43:09.400Z,17.27
2023-05-10T09:45:39.130Z,17.42
2023-05-10T09:48:07.771Z,17.49
2023-05-10T09:50:37.666Z,17.93
2023-05-10T09:53:05.796Z,17.74
2023-05-10T09:55:42.150Z,18.00
2023-05-10T09:58:11.910Z,17.63
2023-05-10T10:00:41.321Z,17.10
2023-05-10T10:03:15.060Z,17.91
2023-05-10T10:05:45.903Z,17.90
2023-05-10T10:08:14.681Z,18.29
2023-05-10T10:10:46.189Z,18.45
2023-05-10T10:13:14.730Z,18.91
2023-05-10T10:15:44.205Z,19.31
2023-05-10T10:18:15.801Z,19.48
2023-05-10T10:20:45.358Z,18.57
2023-05-10T10:23:14.188Z,17.48
2023-05-10T10:25:45.422Z,18.72
2023-05-10T10:28:26.154Z,19.34
2023-05-10T10:30:58.414Z,18.60
2023-05-10T10:33:53.232Z,18.85
2023-05-10T10:36:22.691Z,18.44
2023-05-10T10:39:05.085Z,18.17
2023-05-10T10:41:35.054Z,18.19
2023-05-10T10:44:25.583Z,18.14
2023-05-10T10:47:09.587Z,18.14
2023-05-10T10:49:45.276Z,17.88
2023-05-10T10:52:30.179Z,16.94
2023-05-10T10:55:03.862Z,17.41
2023-05-10T10:57:35.437Z,18.90
2023-05-10T11:00:38.018Z,19.27
2023-05-10T11:03:08.407Z,17.60
2023-05-10T11:05:41.963Z,17.39
2023-05-10T11:08:19.723Z,20.34
2023-05-10T11:11:08.017Z,20.83
2023-05-10T11:13:39.914Z,18.64
2023-05-10T11:16:16.822Z,18.25
2023-05-10T11:18:55.981Z,18.32
2023-05-10T11:21:24.346Z,20.31
2023-05-10T11:23:57.314Z,21.96
2023-05-10T11:26:27.050Z,21.93
2023-05-10T11:28:57.318Z,22.40
2023-05-10T11:31:27.618Z,20.01
2023-05-10T11:33:57.486Z,19.22
2023-05-10T11:36:27.344Z,17.75
2023-05-10T11:38:57.643Z,18.80
2023-05-10T11:41:27.028Z,18.42
2023-05-10T11:43:56.506Z,17.90
2023-05-10T11:46:26.258Z,17.53
2023-05-10T11:48:56.102Z,17.73
2023-05-10T11:51:25.928Z,18.06
2023-05-10T11:53:57.474Z,18.05
2023-05-10T11:56:27.202Z,18.02
2023-05-10T11:58:56.444Z,18.42
2023-05-10T12:01:24.905Z,17.43
2023-05-10T12:03:54.842Z,17.09
2023-05-10T12:06:23.563Z,17.00
2023-05-10T12:08:53.500Z,16.33
2023-05-10T12:11:27.259Z,17.43
2023-05-10T12:13:56.256Z,17.36
2023-05-10T12:16:26.246Z,17.09
2023-05-10T12:18:57.733Z,16.41
2023-05-10T12:21:26.116Z,16.54
2023-05-10T12:23:56.585Z,16.44
2023-05-10T12:26:27.427Z,16.85
2023-05-10T12:28:55.616Z,18.44
2023-05-10T12:31:23.602Z,18.06
2023-05-10T12:33:51.557Z,18.03
2023-05-10T12:36:26.352Z,18.26
2023-05-10T12:39:05.809Z,18.40
2023-05-10T12:41:35.248Z,18.38
2023-05-10T12:44:03.749Z,19.99
2023-05-10T12:46:32.225Z,20.21
2023-05-10T12:49:08.377Z,18.20
2023-05-10T12:51:37.236Z,17.55
2023-05-10T12:54:05.351Z,17.80
2023-05-10T12:56:33.379Z,17.75
2023-05-10T12:59:02.724Z,17.64
2023-05-10T13:01:30.781Z,17.09
2023-05-10T13:03:58.712Z,16.76
2023-05-10T13:06:26.723Z,18.66
2023-05-10T13:08:54.686Z,17.09
2023-05-10T13:11:22.625Z,17.72
2023-05-10T13:13:50.579Z,19.79
2023-05-10T13:16:19.800Z,20.07
2023-05-10T13:18:47.754Z,21.41
2023-05-10T13:21:15.827Z,22.32
2023-05-10T13:23:43.771Z,23.09
2023-05-10T13:26:11.742Z,23.14
2023-05-10T13:28:39.828Z,24.52
2023-05-10T13:31:07.776Z,22.82
2023-05-10T13:33:37.060Z,21.95
2023-05-10T13:36:05.460Z,21.08
2023-05-10T13:38:33.545Z,20.42
2023-05-10T13:41:01.468Z,22.72
2023-05-10T13:43:29.409Z,20.17
2023-05-10T13:45:57.458Z,20.36
2023-05-10T13:48:25.321Z,20.93
2023-05-10T13:50:54.582Z,21.80
2023-05-10T13:53:22.707Z,21.27
2023-05-10T13:55:51.096Z,20.41
2023-05-10T13:58:19.098Z,20.76
2023-05-10T14:00:47.000Z,20.94
2023-05-10T14:03:14.989Z,19.15
2023-05-10T14:05:42.980Z,18.99
2023-05-10T14:08:14.106Z,18.58
2023-05-10T14:10:42.015Z,19.37
2023-05-10T14:13:09.889Z,20.12
2023-05-10T14:15:37.738Z,21.01
2023-05-10T14:18:05.692Z,19.71
2023-05-10T14:20:34.747Z,18.58
2023-05-10T14:23:02.638Z,19.57
2023-05-10T14:25:31.956Z,22.59
2023-05-10T14:27:59.836Z,24.74
2023-05-10T14:30:27.966Z,24.01
2023-05-10T14:32:56.467Z,25.06
2023-05-10T14:35:24.822Z,24.61
2023-05-10T14:37:52.924Z,24.52
2023-05-10T14:40:21.981Z,24.18
2023-05-10T14:42:53.856Z,25.14
2023-05-10T14:45:22.555Z,26.18
2023-05-10T14:47:51.113Z,25.20
2023-05-10T14:50:32.316Z,20.91
2023-05-10T14:53:03.214Z,20.37
2023-05-10T14:55:31.086Z,21.44
2023-05-10T14:58:00.424Z,21.67
2023-05-10T15:00:29.985Z,20.51
2023-05-10T15:02:58.461Z,19.78
2023-05-10T15:05:27.209Z,20.70
2023-05-10T15:07:55.837Z,21.84
2023-05-10T15:10:23.808Z,25.23
2023-05-10T15:12:52.490Z,24.33
2023-05-10T15:15:21.841Z,22.76
2023-05-10T15:17:49.883Z,22.65
2023-05-10T15:20:18.108Z,23.31
2023-05-10T15:22:46.025Z,23.00
2023-05-10T15:25:14.196Z,22.30
2023-05-10T15:27:44.461Z,24.28
2023-05-10T15:30:13.249Z,26.16
2023-05-10T15:32:43.761Z,28.56
2023-05-10T15:35:12.196Z,26.73
2023-05-10T15:37:40.313Z,28.05
2023-05-10T15:40:10.188Z,30.51
2023-05-10T15:42:38.065Z,29.31
2023-05-10T15:45:07.067Z,29.87
2023-05-10T15:47:35.158Z,29.13
2023-05-10T15:50:04.730Z,25.12
2023-05-10T15:52:32.639Z,24.74
2023-05-10T15:55:00.414Z,24.38
2023-05-10T15:57:28.184Z,24.07
2023-05-10T15:59:56.344Z,23.61
2023-05-10T16:02:24.313Z,22.82
2023-05-10T16:04:52.741Z,22.39
2023-05-10T16:07:23.932Z,21.35
2023-05-10T16:09:51.750Z,23.21
2023-05-10T16:12:19.961Z,26.00
2023-05-10T16:14:48.068Z,26.72
2023-05-10T16:17:16.341Z,25.82
2023-05-10T16:19:44.513Z,24.42
2023-05-10T16:22:12.441Z,24.04
2023-05-10T16:24:42.415Z,22.34
2023-05-10T16:27:10.311Z,22.26
2023-05-10T16:29:38.248Z,21.72
2023-05-10T16:32:06.474Z,22.15
2023-05-10T16:34:34.390Z,21.88
2023-05-10T16:37:02.387Z,20.80
2023-05-10T16:39:30.296Z,21.12
2023-05-10T16:41:59.632Z,20.10
2023-05-10T16:44:27.466Z,19.73
2023-05-10T16:46:56.008Z,20.44
2023-05-10T16:49:26.206Z,20.81
2023-05-10T16:51:54.412Z,20.45
2023-05-10T16:54:22.832Z,19.69
2023-05-10T16:56:50.765Z,19.11
2023-05-10T16:59:20.102Z,18.91
2023-05-10T17:01:48.227Z,18.44
2023-05-10T17:04:17.796Z,18.06
2023-05-10T17:06:45.762Z,17.58
2023-05-10T17:09:13.859Z,17.87
2023-05-10T17:11:43.091Z,18.34
2023-05-10T17:14:11.169Z,18.22
2023-05-10T17:16:40.614Z,17.48
2023-05-10T17:19:09.559Z,18.20
2023-05-10T17:21:37.633Z,17.33
2023-05-10T17:24:05.907Z,17.74
2023-05-10T17:26:34.627Z,17.76
2023-05-10T17:29:02.623Z,17.93
2023-05-10T17:31:31.101Z,18.35
2023-05-10T17:34:00.379Z,17.90
2023-05-10T17:36:28.515Z,17.94
2023-05-10T17:38:56.472Z,17.86
2023-05-10T17:41:24.529Z,17.51
2023-05-10T17:43:52.491Z,17.39
2023-05-10T17:46:20.530Z,17.13
2023-05-10T17:48:48.656Z,17.34
2023-05-10T17:51:17.964Z,17.15
2023-05-10T17:53:45.876Z,16.73
2023-05-10T17:56:13.892Z,17.02
2023-05-10T17:58:42.091Z,16.86
2023-05-10T18:01:10.084Z,16.71
2023-05-10T18:03:38.227Z,16.45
2023-05-10T18:06:06.513Z,15.93
2023-05-10T18:08:35.833Z,15.67
2023-05-10T18:11:03.767Z,15.53
2023-05-10T18:13:32.114Z,15.31
2023-05-10T18:16:00.147Z,15.18
2023-05-10T18:18:28.249Z,14.92
2023-05-10T18:20:58.285Z,14.52
2023-05-10T18:23:26.440Z,14.47
2023-05-10T18:25:55.742Z,14.20
2023-05-10T18:28:24.448Z,14.26
2023-05-10T18:30:52.622Z,14.27
2023-05-10T18:33:20.875Z,14.13
2023-05-10T18:35:49.101Z,13.92
2023-05-10T18:38:17.337Z,13.86
2023-05-10T18:40:45.240Z,13.77
2023-05-10T18:43:14.681Z,13.56
2023-05-10T18:45:43.898Z,13.77
2023-05-10T18:48:12.033Z,13.58
2023-05-10T18:50:39.888Z,13.66
2023-05-10T18:53:07.849Z,13.62
2023-05-10T18:55:35.770Z,13.72
2023-05-10T18:58:03.724Z,13.68
2023-05-10T19:00:33.260Z,14.38
2023-05-10T19:03:01.258Z,13.87
2023-05-10T19:05:30.350Z,13.90
2023-05-10T19:07:58.391Z,13.98
2023-05-10T19:10:26.262Z,14.58
2023-05-10T19:12:54.210Z,14.10
2023-05-10T19:15:22.333Z,14.19
2023-05-10T19:17:52.583Z,14.05
2023-05-10T19:20:20.790Z,14.11
2023-05-10T19:22:58.438Z,14.16
2023-05-10T19:25:36.937Z,14.10
2023-05-10T19:28:04.845Z,14.03
2023-05-10T19:30:32.890Z,13.94
2023-05-10T19:33:05.444Z,13.99
2023-05-10T19:35:33.753Z,13.85
2023-05-10T19:38:01.761Z,14.02
2023-05-10T19:40:29.711Z,13.99
2023-05-10T19:42:57.864Z,13.96
2023-05-10T19:45:26.243Z,13.83
2023-05-10T19:47:54.381Z,13.83
2023-05-10T19:50:23.695Z,13.95
2023-05-10T19:52:51.767Z,14.01
2023-05-10T19:55:27.907Z,14.16
2023-05-10T19:57:55.836Z,14.03
2023-05-10T20:00:24.252Z,14.08
2023-05-10T20:02:52.172Z,14.12
2023-05-10T20:05:20.216Z,14.00
2023-05-10T20:07:49.465Z,14.07
2023-05-10T20:10:17.948Z,14.07
2023-05-10T20:12:51.091Z,14.47
2023-05-10T20:15:20.055Z,14.03
2023-05-10T20:17:48.470Z,13.97
2023-05-10T20:20:17.167Z,13.89
2023-05-10T20:22:45.652Z,13.79
2023-05-10T20:25:15.922Z,13.48
2023-05-10T20:27:43.974Z,13.50
2023-05-10T20:30:12.651Z,13.49
2023-05-10T20:32:40.717Z,13.59
2023-05-10T20:35:09.148Z,13.66
2023-05-10T20:37:38.066Z,13.28
2023-05-10T20:40:07.021Z,13.22
2023-05-10T20:42:36.379Z,14.03
2023-05-10T20:45:04.509Z,15.06
2023-05-10T20:47:32.601Z,13.75
2023-05-10T20:50:00.812Z,13.52
2023-05-10T20:52:28.761Z,14.27
2023-05-10T20:54:56.668Z,13.98
2023-05-10T20:57:24.591Z,13.59
2023-05-10T20:59:54.604Z,13.41
2023-05-10T21:02:22.547Z,13.49
2023-05-10T21:04:50.589Z,13.57
2023-05-10T21:07:18.618Z,13.58
2023-05-10T21:09:46.551Z,13.86
2023-05-10T21:12:14.571Z,13.59
2023-05-10T21:14:43.056Z,13.54
2023-05-10T21:17:12.307Z,13.53
2023-05-10T21:19:40.189Z,13.82
2023-05-10T21:22:08.232Z,13.53
2023-05-10T21:24:36.107Z,13.33
2023-05-10T21:27:04.824Z,14.62
2023-05-10T21:29:32.688Z,14.88
2023-05-10T21:32:01.196Z,14.64
2023-05-10T21:34:31.160Z,14.90
2023-05-10T21:36:59.061Z,14.57
2023-05-10T21:39:26.936Z,13.53
2023-05-10T21:41:54.803Z,14.46
2023-05-10T21:44:22.748Z,13.50
2023-05-10T21:46:50.656Z,13.31
2023-05-10T21:49:18.914Z,13.50
2023-05-10T21:51:48.619Z,13.49
2023-05-10T21:54:16.554Z,13.72
2023-05-10T21:56:45.024Z,14.05
2023-05-10T21:59:12.974Z,14.17
2023-05-10T22:01:41.237Z,13.43
2023-05-10T22:04:09.412Z,15.17
2023-05-10T22:06:37.402Z,15.80
2023-05-10T22:09:06.807Z,13.79
2023-05-10T22:11:34.623Z,13.44
2023-05-10T22:14:02.518Z,13.42
2023-05-10T22:16:30.432Z,13.34
2023-05-10T22:18:58.375Z,13.07
2023-05-10T22:21:26.416Z,13.14
2023-05-10T22:23:54.339Z,12.86
2023-05-10T22:26:23.627Z,13.29
2023-05-10T22:28:51.673Z,13.40
2023-05-10T22:31:19.594Z,13.44
2023-05-10T22:33:47.611Z,13.37
2023-05-10T22:36:15.709Z,13.27
2023-05-10T22:38:43.756Z,13.22
2023-05-10T22:41:11.623Z,13.55
2023-05-10T22:43:40.900Z,13.40
2023-05-10T22:46:08.859Z,14.89
2023-05-10T22:48:37.138Z,13.35
2023-05-10T22:51:05.347Z,13.37
2023-05-10T22:53:33.323Z,13.54
2023-05-10T22:56:01.326Z,13.64
2023-05-10T22:58:29.352Z,13.56
2023-05-10T23:00:59.059Z,13.52
2023-05-10T23:03:27.299Z,13.44
2023-05-10T23:05:55.180Z,13.46
2023-05-10T23:08:23.474Z,13.42
2023-05-10T23:10:51.716Z,13.61
2023-05-10T23:13:21.005Z,13.98
2023-05-10T23:15:49.058Z,13.50
2023-05-10T23:18:18.427Z,13.63
2023-05-10T23:20:46.328Z,13.53
2023-05-10T23:23:14.169Z,13.16
2023-05-10T23:25:42.041Z,13.41
2023-05-10T23:28:09.957Z,13.53
2023-05-10T23:30:37.890Z,15.07
2023-05-10T23:33:05.849Z,13.70
2023-05-10T23:35:35.160Z,13.44
2023-05-10T23:38:03.164Z,13.27
2023-05-10T23:40:31.345Z,13.26
2023-05-10T23:42:59.246Z,13.30
2023-05-10T23:45:27.194Z,13.40
2023-05-10T23:47:55.192Z,13.42
2023-05-10T23:50:23.186Z,13.45
2023-05-10T23:52:52.761Z,13.36
2023-05-10T23:55:20.689Z,13.25
2023-05-10T23:57:57.680Z,13.04
